Time;durP1;ratioP1;P1;durP2;ratioP2;P2;SDS_P1;SDS_P2;PMS_P1;PMS_P2;Temp;Humidity;BMP_temperature;BMP_pressure;BME280_temperature;BME280_humidity;BME280_pressure;Samples;Min_cycle;Max_cycle;Signal;HPM_P1;HPM_P2
2022/01/30 00:02:23;;;;;;;10.45;2.38;;;15.70;49.80;14.80;101847.00;;;;5062862;28;20417;-72
2022/01/30 00:05:09;;;;;;;9.48;1.90;;;15.70;49.70;14.80;101848.00;;;;5061453;28;20048;-72
2022/01/30 00:07:55;;;;;;;9.18;1.90;;;15.70;49.80;14.80;101851.00;;;;5047391;28;20036;-71
2022/01/30 00:10:42;;;;;;;9.45;1.75;;;15.70;49.80;14.80;101861.00;;;;5057100;28;20052;-71
2022/01/30 00:13:28;;;;;;;11.85;2.15;;;15.70;49.80;14.80;101863.00;;;;5057751;28;20037;-71
2022/01/30 00:16:17;;;;;;;9.48;2.42;;;15.70;49.80;14.80;101865.00;;;;5060930;28;20036;-71
2022/01/30 00:22:00;;;;;;;7.47;1.55;;;15.70;49.80;14.80;101850.00;;;;5045832;28;20041;-71
2022/01/30 00:24:54;;;;;;;6.82;2.15;;;15.70;49.80;14.80;101849.00;;;;5056903;28;20041;-71
2022/01/30 00:27:49;;;;;;;11.02;1.90;;;15.70;49.70;14.80;101848.00;;;;5049851;28;20077;-71
2022/01/30 00:30:36;;;;;;;9.25;1.98;;;15.70;49.70;14.80;101864.00;;;;5043413;28;20090;-71
2022/01/30 00:33:22;;;;;;;7.28;1.90;;;15.70;49.60;14.80;101862.00;;;;5066210;28;20036;-71
2022/01/30 00:36:08;;;;;;;9.98;2.00;;;15.70;49.70;14.80;101865.00;;;;5053064;28;20140;-72
2022/01/30 00:38:54;;;;;;;6.95;1.80;;;15.70;49.70;14.80;101874.00;;;;5060958;28;20055;-72
2022/01/30 00:41:40;;;;;;;8.45;2.35;;;15.60;49.60;14.80;101871.00;;;;5064071;28;20044;-71
2022/01/30 00:44:26;;;;;;;11.00;2.42;;;15.70;49.60;14.80;101859.00;;;;5054714;28;20384;-72
2022/01/30 00:47:13;;;;;;;12.27;1.70;;;15.60;49.60;14.80;101846.00;;;;5049361;28;20076;-71
2022/01/30 00:50:00;;;;;;;12.27;2.20;;;15.60;49.50;14.80;101857.00;;;;5057558;28;20041;-71
2022/01/30 00:52:50;;;;;;;11.32;2.35;;;15.60;49.50;14.70;101860.00;;;;5047641;28;20064;-72
2022/01/30 00:55:36;;;;;;;8.45;1.88;;;15.60;49.10;14.70;101848.00;;;;5057207;28;20112;-71
2022/01/30 00:58:22;;;;;;;9.25;2.15;;;15.60;49.20;14.70;101858.00;;;;5056933;28;20044;-71
2022/01/30 01:01:09;;;;;;;10.85;2.22;;;15.60;49.30;14.70;101864.00;;;;5049838;28;20037;-71
2022/01/30 01:03:55;;;;;;;11.23;2.25;;;15.60;49.20;14.70;101854.00;;;;5055324;28;20146;-71
2022/01/30 01:06:44;;;;;;;10.35;2.13;;;15.60;49.00;14.70;101862.00;;;;5045404;28;20036;-71
2022/01/30 01:09:36;;;;;;;9.20;2.10;;;15.60;49.10;14.70;101861.00;;;;5067116;28;20051;-71
2022/01/30 01:24:18;;;;;;;14.30;2.23;;;15.50;49.00;14.60;101872.00;;;;5063916;28;20620;-71
2022/01/30 01:27:04;;;;;;;10.48;2.17;;;15.50;49.00;14.60;101863.00;;;;5062237;28;20312;-71
2022/01/30 01:29:50;;;;;;;9.32;2.33;;;15.50;49.00;14.60;101876.00;;;;5059146;28;20421;-71
2022/01/30 01:32:36;;;;;;;10.60;2.42;;;15.50;48.90;14.60;101881.00;;;;5060376;28;20048;-71
2022/01/30 01:35:22;;;;;;;10.48;2.15;;;15.40;48.70;14.60;101863.00;;;;5061534;28;20493;-71
2022/01/30 01:38:13;;;;;;;11.98;2.30;;;15.50;48.80;14.60;101873.00;;;;5060317;28;20040;-71
2022/01/30 01:40:59;;;;;;;7.60;1.77;;;15.50;48.80;14.60;101861.00;;;;5065515;28;20120;-71
2022/01/30 01:43:45;;;;;;;8.43;1.83;;;15.50;48.80;14.60;101873.00;;;;5034162;28;20044;-72
2022/01/30 01:46:35;;;;;;;9.15;2.20;;;15.50;48.70;14.60;101881.00;;;;5045586;28;20041;-71
2022/01/30 01:49:27;;;;;;;6.47;1.60;;;15.40;48.60;14.60;101896.00;;;;5029198;28;20037;-71
2022/01/30 01:52:24;;;;;;;6.13;1.58;;;15.40;48.60;14.60;101900.00;;;;5042766;28;20043;-71
2022/01/30 01:55:10;;;;;;;12.57;2.17;;;15.40;48.60;14.60;101915.00;;;;5057736;28;20037;-71
2022/01/30 01:57:56;;;;;;;8.45;1.80;;;15.40;48.60;14.60;101916.00;;;;5064061;28;20033;-71
2022/01/30 02:00:42;;;;;;;13.07;1.90;;;15.40;48.60;14.60;101919.00;;;;5045414;28;20049;-71
2022/01/30 02:03:28;;;;;;;12.38;2.17;;;15.50;48.60;14.50;101913.00;;;;5063994;28;20051;-71
2022/01/30 02:06:18;;;;;;;8.68;1.80;;;15.40;48.60;14.50;101911.00;;;;5054035;28;20037;-71
2022/01/30 02:09:09;;;;;;;10.23;2.00;;;15.40;48.60;14.50;101918.00;;;;5034381;28;20048;-71
2022/01/30 02:11:56;;;;;;;8.65;1.48;;;15.40;48.50;14.50;101913.00;;;;5062329;28;20543;-71
2022/01/30 02:15:15;;;;;;;11.18;1.95;;;15.40;48.20;14.50;101910.00;;;;5058635;28;20049;-71
2022/01/30 02:24:09;;;;;;;7.00;1.85;;;15.40;48.30;14.50;101904.00;;;;5029922;28;20037;-71
2022/01/30 02:26:55;;;;;;;6.22;1.80;;;15.30;48.30;14.50;101915.00;;;;5064898;28;20086;-71
2022/01/30 02:29:41;;;;;;;7.65;1.73;;;15.30;48.20;14.50;101919.00;;;;5062761;28;20102;-71
2022/01/30 02:32:28;;;;;;;8.85;2.20;;;15.30;48.10;14.50;101914.00;;;;5064350;28;20044;-71
2022/01/30 02:35:14;;;;;;;7.38;1.58;;;15.30;48.20;14.50;101910.00;;;;5059831;28;20064;-71
2022/01/30 02:38:01;;;;;;;8.15;1.80;;;15.30;48.20;14.50;101920.00;;;;5053378;28;20413;-71
2022/01/30 02:40:49;;;;;;;13.23;2.07;;;15.30;48.20;14.50;101927.00;;;;5065547;28;20037;-72
2022/01/30 02:43:42;;;;;;;;;;;15.30;48.30;14.40;101920.00;;;;5043976;28;20469;-71
2022/01/30 02:46:33;;;;;;;9.60;2.20;;;15.30;48.60;14.40;101907.00;;;;5060350;28;19913;-71
2022/01/30 02:52:07;;;;;;;6.82;1.70;;;15.30;48.20;14.40;101910.00;;;;5062060;28;20115;-71
2022/01/30 02:54:53;;;;;;;6.32;1.50;;;15.30;48.30;14.40;101915.00;;;;5053760;28;20076;-71
2022/01/30 02:57:39;;;;;;;10.02;2.08;;;15.30;48.20;14.40;101925.00;;;;5058355;28;20045;-71
2022/01/30 03:00:25;;;;;;;7.00;1.50;;;15.30;48.20;14.40;101918.00;;;;5061747;28;20062;-71
2022/01/30 03:03:11;;;;;;;13.32;2.33;;;15.30;48.10;14.40;101922.00;;;;5052935;28;20040;-71
2022/01/30 03:05:57;;;;;;;8.20;1.77;;;15.20;48.00;14.40;101924.00;;;;5058603;28;20478;-71
2022/01/30 03:08:43;;;;;;;10.40;1.80;;;15.30;48.20;14.40;101920.00;;;;5063006;28;20458;-72
2022/01/30 03:11:30;;;;;;;5.78;1.48;;;15.20;48.00;14.40;101924.00;;;;5052727;28;20477;-71
2022/01/30 03:14:16;;;;;;;6.88;1.30;;;15.20;48.10;14.40;101918.00;;;;5059864;28;20037;-71
2022/01/30 03:17:02;;;;;;;9.70;1.85;;;15.20;48.20;14.40;101912.00;;;;5063141;28;20103;-71
2022/01/30 03:19:48;;;;;;;6.50;1.52;;;15.20;48.00;14.40;101921.00;;;;5060102;28;20040;-71
2022/01/30 03:22:34;;;;;;;8.10;1.70;;;15.20;48.20;14.40;101925.00;;;;5060198;28;20117;-71
2022/01/30 03:25:20;;;;;;;7.18;1.88;;;15.20;48.10;14.40;101926.00;;;;5065347;28;20033;-71
2022/01/30 03:28:07;;;;;;;7.30;1.50;;;15.20;48.10;14.40;101934.00;;;;5054102;28;20040;-71
2022/01/30 03:30:58;;;;;;;10.27;1.60;;;15.20;48.10;14.40;101919.00;;;;5066890;28;20825;-71
2022/01/30 03:33:44;;;;;;;6.40;1.40;;;15.20;48.20;14.40;101931.00;;;;5056972;28;20504;-71
2022/01/30 03:36:30;;;;;;;6.10;1.60;;;15.20;48.20;14.40;101935.00;;;;5062334;28;20047;-72
2022/01/30 03:39:16;;;;;;;5.43;1.30;;;15.20;48.20;14.40;101941.00;;;;5062033;28;20501;-72
2022/01/30 03:42:03;;;;;;;4.45;1.40;;;15.20;48.20;14.40;101946.00;;;;5058750;28;20033;-71
2022/01/30 03:44:49;;;;;;;4.85;1.30;;;15.20;48.20;14.40;101947.00;;;;5049296;28;20045;-71
2022/01/30 03:47:35;;;;;;;8.50;2.00;;;15.20;48.10;14.40;101960.00;;;;5068858;28;20033;-71
2022/01/30 03:50:22;;;;;;;6.35;1.48;;;15.20;48.10;14.40;101955.00;;;;5054747;28;20485;-71
2022/01/30 03:53:08;;;;;;;8.18;2.15;;;15.20;48.10;14.40;101959.00;;;;5062624;28;20109;-71
2022/01/30 03:55:54;;;;;;;7.13;1.63;;;15.20;48.80;14.40;101976.00;;;;5060555;28;20047;-71
2022/01/30 03:58:40;;;;;;;7.18;2.03;;;15.20;48.10;14.40;101981.00;;;;5060096;28;20141;-71
2022/01/30 04:01:26;;;;;;;7.55;1.60;;;15.20;48.20;14.40;101979.00;;;;5061091;28;20029;-71
2022/01/30 04:04:12;;;;;;;8.07;1.65;;;15.20;48.30;14.40;101981.00;;;;5057869;28;20043;-71
2022/01/30 04:06:58;;;;;;;6.15;1.67;;;15.20;48.30;14.40;101978.00;;;;5066729;28;20497;-71
2022/01/30 04:09:45;;;;;;;10.40;1.90;;;15.20;48.40;14.40;101969.00;;;;5057288;28;20115;-71
2022/01/30 04:12:31;;;;;;;8.85;1.60;;;15.20;48.40;14.40;101974.00;;;;5046765;28;20048;-71
2022/01/30 04:15:18;;;;;;;5.88;1.55;;;15.20;48.50;14.40;101967.00;;;;5058837;28;20049;-71
2022/01/30 04:18:04;;;;;;;6.85;1.65;;;15.20;48.40;14.40;101978.00;;;;5064156;28;20041;-72
2022/01/30 04:20:51;;;;;;;6.63;1.75;;;15.30;48.50;14.40;101980.00;;;;5048528;28;20032;-71
2022/01/30 04:23:39;;;;;;;8.82;1.60;;;15.20;48.40;14.40;101995.00;;;;5047598;28;20397;-71
2022/01/30 04:26:25;;;;;;;7.80;1.75;;;15.30;48.50;14.40;101993.00;;;;5057681;28;20102;-71
2022/01/30 04:29:11;;;;;;;5.03;1.02;;;15.30;48.50;14.50;101999.00;;;;5063310;28;20041;-72
2022/01/30 04:31:58;;;;;;;8.80;2.38;;;15.30;48.40;14.50;102018.00;;;;5045462;28;20121;-71
2022/01/30 04:34:51;;;;;;;6.25;1.30;;;15.30;48.50;14.50;101995.00;;;;5059877;28;20076;-71
2022/01/30 04:37:55;;;;;;;5.28;1.48;;;15.30;48.40;14.50;101984.00;;;;5050311;28;20056;-71
2022/01/30 04:41:08;;;;;;;8.45;1.52;;;15.30;48.40;14.50;101993.00;;;;5059895;28;20059;-71
2022/01/30 04:53:16;;;;;;;6.10;1.40;;;15.40;48.20;14.60;101992.00;;;;5057681;28;20041;-72
2022/01/30 05:02:45;;;;;;;9.45;2.33;;;15.50;48.10;14.60;101982.00;;;;5056326;28;20029;-72
2022/01/30 05:08:21;;;;;;;4.97;1.60;;;15.50;48.10;14.60;101990.00;;;;5062220;28;20044;-72
2022/01/30 05:11:09;;;;;;;6.40;1.38;;;15.50;47.90;14.60;101994.00;;;;5056629;28;20036;-71
2022/01/30 05:13:55;;;;;;;8.15;1.30;;;15.50;48.10;14.60;101986.00;;;;5059935;28;20370;-71
2022/01/30 05:16:41;;;;;;;11.00;2.00;;;15.50;47.90;14.60;101990.00;;;;5048505;28;20053;-72
2022/01/30 05:19:28;;;;;;;4.93;1.23;;;15.50;47.90;14.60;101981.00;;;;5046301;28;20036;-71
2022/01/30 05:22:14;;;;;;;7.72;1.50;;;15.50;48.00;14.60;102001.00;;;;5063569;28;20036;-71
2022/01/30 05:25:00;;;;;;;8.85;1.98;;;15.50;47.80;14.60;102012.00;;;;5057390;28;20044;-71
2022/01/30 05:27:47;;;;;;;7.07;1.80;;;15.50;47.90;14.60;102018.00;;;;5067544;28;20047;-71
2022/01/30 05:30:35;;;;;;;8.57;1.52;;;15.50;47.90;14.60;102013.00;;;;5060713;28;20477;-71
2022/01/30 05:33:22;;;;;;;5.68;1.55;;;15.50;47.90;14.60;102012.00;;;;5037444;28;20044;-72
2022/01/30 05:36:08;;;;;;;7.15;2.28;;;15.50;48.00;14.60;102020.00;;;;5064181;28;20045;-71
2022/01/30 05:38:54;;;;;;;6.55;1.75;;;15.50;48.00;14.60;102027.00;;;;5041023;28;20083;-71
2022/01/30 05:41:41;;;;;;;5.25;1.33;;;15.50;47.90;14.60;102013.00;;;;5057287;28;20069;-71
2022/01/30 05:44:42;;;;;;;12.10;2.22;;;15.50;47.90;14.60;102034.00;;;;5049041;28;20037;-71
2022/01/30 05:47:41;;;;;;;11.70;2.15;;;15.50;48.00;14.60;102044.00;;;;5062584;28;20478;-71
2022/01/30 05:50:27;;;;;;;11.20;1.92;;;15.50;48.00;14.60;102050.00;;;;5024518;28;20503;-71
2022/01/30 05:53:14;;;;;;;9.93;1.98;;;15.50;47.90;14.50;102055.00;;;;5046665;28;20040;-71
2022/01/30 05:56:00;;;;;;;8.15;2.03;;;15.50;48.00;14.50;102062.00;;;;5045847;28;20486;-72
2022/01/30 05:58:49;;;;;;;7.60;1.67;;;15.40;48.00;14.50;102059.00;;;;5065175;28;20087;-71
2022/01/30 06:01:35;;;;;;;10.48;2.10;;;15.40;48.00;14.60;102055.00;;;;5055719;28;20028;-71
2022/01/30 06:04:21;;;;;;;8.02;1.88;;;15.40;48.10;14.60;102057.00;;;;5045813;28;20029;-71
2022/01/30 06:07:10;;;;;;;6.65;1.80;;;15.40;48.10;14.60;102054.00;;;;5066707;28;20047;-71
2022/01/30 06:09:56;;;;;;;9.13;2.10;;;15.40;48.10;14.60;102047.00;;;;5067496;28;20044;-71
2022/01/30 06:12:42;;;;;;;12.13;2.50;;;15.40;48.10;14.60;102054.00;;;;5067073;28;20406;-71
2022/01/30 06:15:28;;;;;;;7.00;1.67;;;15.50;48.10;14.60;102045.00;;;;5053019;28;20052;-71
2022/01/30 06:18:14;;;;;;;8.77;1.90;;;15.50;48.10;14.60;102057.00;;;;5063997;28;20098;-71
2022/01/30 06:21:01;;;;;;;12.68;2.40;;;15.50;48.10;14.60;102054.00;;;;5063695;28;20036;-71
2022/01/30 06:23:48;;;;;;;5.80;1.50;;;15.50;48.10;14.60;102052.00;;;;5058404;28;20044;-71
2022/01/30 06:26:34;;;;;;;9.70;2.05;;;15.50;48.10;14.60;102059.00;;;;5048353;28;20049;-71
2022/01/30 06:29:20;;;;;;;8.95;1.80;;;15.50;47.90;14.60;102060.00;;;;5061542;28;20048;-71
2022/01/30 06:32:07;;;;;;;10.02;2.10;;;15.50;47.90;14.60;102071.00;;;;5065434;28;20041;-72
2022/01/30 06:34:53;;;;;;;8.70;1.73;;;15.40;47.80;14.60;102076.00;;;;5067727;28;21272;-72
2022/01/30 06:37:39;;;;;;;6.65;1.90;;;15.50;47.90;14.60;102076.00;;;;5065195;28;20049;-72
2022/01/30 06:40:26;;;;;;;10.25;1.98;;;15.50;47.90;14.60;102077.00;;;;5062760;28;20512;-71
2022/01/30 06:43:12;;;;;;;7.85;2.08;;;15.40;47.90;14.50;102081.00;;;;5062188;28;20368;-72
2022/01/30 06:45:58;;;;;;;5.97;1.60;;;15.40;47.90;14.50;102086.00;;;;5062653;28;20475;-71
2022/01/30 06:48:44;;;;;;;9.02;2.40;;;15.50;47.90;14.50;102084.00;;;;5063452;28;20063;-71
2022/01/30 06:51:30;;;;;;;6.80;1.98;;;15.40;47.80;14.60;102086.00;;;;5049466;28;20071;-71
2022/01/30 06:54:16;;;;;;;9.65;2.03;;;15.50;48.00;14.50;102094.00;;;;5062792;28;20044;-72
2022/01/30 06:57:02;;;;;;;7.18;2.00;;;15.40;47.90;14.60;102096.00;;;;5052287;28;20045;-72
2022/01/30 06:59:48;;;;;;;9.15;2.38;;;15.40;47.90;14.60;102097.00;;;;5063348;28;20045;-72
2022/01/30 07:02:34;;;;;;;8.57;2.20;;;15.40;47.80;14.50;102103.00;;;;5062967;28;20037;-71
2022/01/30 07:05:21;;;;;;;8.87;2.10;;;15.40;47.90;14.50;102112.00;;;;5059879;28;20055;-71
2022/01/30 07:08:08;;;;;;;11.48;2.50;;;15.50;48.10;14.50;102108.00;;;;5060368;28;20489;-71
2022/01/30 07:10:54;;;;;;;13.43;2.58;;;15.40;47.90;14.50;102112.00;;;;5062863;28;20037;-72
2022/01/30 07:13:40;;;;;;;11.00;2.83;;;15.40;47.90;14.50;102126.00;;;;5058486;28;20406;-72
2022/01/30 07:16:26;;;;;;;9.80;2.42;;;15.40;47.90;14.50;102128.00;;;;5052473;28;20041;-71
2022/01/30 07:19:12;;;;;;;10.15;2.40;;;15.40;47.80;14.50;102135.00;;;;5063954;28;20103;-71
2022/01/30 07:21:58;;;;;;;13.38;2.70;;;15.40;47.80;14.50;102121.00;;;;5057647;28;20045;-71
2022/01/30 07:24:44;;;;;;;15.13;2.88;;;15.40;47.80;14.50;102127.00;;;;5064913;28;20406;-71
2022/01/30 07:27:30;;;;;;;10.57;2.38;;;15.40;47.80;14.50;102130.00;;;;5063175;28;20037;-71
2022/01/30 07:30:16;;;;;;;11.10;2.75;;;15.30;48.40;14.40;102142.00;;;;5063057;28;20488;-72
2022/01/30 07:33:04;;;;;;;10.70;2.53;;;15.30;47.70;14.40;102149.00;;;;5057831;28;20040;-71
2022/01/30 07:35:53;;;;;;;12.98;2.58;;;15.30;47.80;14.40;102151.00;;;;5059587;28;20064;-71
2022/01/30 07:38:39;;;;;;;12.48;2.92;;;15.30;47.80;14.40;102147.00;;;;5062949;28;20128;-72
2022/01/30 07:41:25;;;;;;;12.18;2.72;;;15.30;47.60;14.40;102161.00;;;;5060640;28;20037;-71
2022/01/30 07:44:11;;;;;;;12.77;2.92;;;15.30;47.60;14.40;102171.00;;;;5059955;28;20394;-72
2022/01/30 07:46:57;;;;;;;12.75;2.95;;;15.30;47.40;14.40;102177.00;;;;5066797;28;20468;-71
2022/01/30 07:49:45;;;;;;;11.25;2.97;;;15.30;47.50;14.40;102174.00;;;;5060277;28;20040;-72
2022/01/30 07:52:31;;;;;;;14.68;3.45;;;15.30;47.40;14.30;102176.00;;;;5064069;28;20403;-72
2022/01/30 07:55:20;;;;;;;13.80;2.88;;;15.20;47.30;14.40;102189.00;;;;5059997;28;20108;-72
2022/01/30 07:58:06;;;;;;;18.38;3.83;;;15.20;47.40;14.30;102181.00;;;;5056725;28;20595;-71
2022/01/30 08:00:52;;;;;;;15.00;3.25;;;15.20;48.10;14.30;102187.00;;;;5049933;28;20052;-71
2022/01/30 08:03:38;;;;;;;13.45;3.35;;;15.30;47.40;14.30;102190.00;;;;5038283;28;20036;-71
2022/01/30 08:06:24;;;;;;;13.93;3.28;;;15.20;47.30;14.30;102194.00;;;;5062416;28;20079;-71
2022/01/30 08:09:10;;;;;;;13.40;2.90;;;15.20;47.40;14.30;102196.00;;;;5060682;28;20402;-72
2022/01/30 08:11:56;;;;;;;16.00;3.17;;;15.20;47.30;14.30;102191.00;;;;5063885;28;20028;-77
2022/01/30 08:14:42;;;;;;;9.88;2.42;;;15.20;47.30;14.30;102196.00;;;;5048723;28;20082;-74
2022/01/30 08:17:32;;;;;;;15.25;3.33;;;15.20;47.30;14.30;102196.00;;;;5062240;28;20101;-73
2022/01/30 08:20:18;;;;;;;9.07;2.70;;;15.20;47.40;14.30;102183.00;;;;5048161;28;20618;-73
2022/01/30 08:23:12;;;;;;;13.40;3.33;;;15.20;47.30;14.40;102186.00;;;;5049833;28;20064;-73
2022/01/30 08:25:58;;;;;;;14.10;2.92;;;15.20;47.30;14.40;102184.00;;;;5051868;28;20135;-73
2022/01/30 08:28:44;;;;;;;13.65;3.40;;;15.20;47.30;14.40;102187.00;;;;5058794;28;20068;-73
2022/01/30 08:31:30;;;;;;;13.75;3.45;;;15.20;47.30;14.40;102187.00;;;;5063199;28;20052;-73
2022/01/30 08:34:16;;;;;;;11.50;2.90;;;15.20;47.40;14.40;102193.00;;;;5058603;28;20047;-73
2022/01/30 08:37:02;;;;;;;13.18;3.45;;;15.20;47.30;14.40;102179.00;;;;5064512;28;20048;-73
2022/01/30 08:39:48;;;;;;;10.75;2.83;;;15.30;47.40;14.40;102197.00;;;;5056409;28;20512;-73
2022/01/30 08:42:34;;;;;;;14.27;3.28;;;15.30;47.30;14.40;102191.00;;;;5062215;28;20036;-85
2022/01/30 08:45:21;;;;;;;12.80;3.60;;;15.30;47.30;14.40;102206.00;;;;5034122;28;20040;-72
2022/01/30 08:48:07;;;;;;;16.45;3.67;;;15.20;47.20;14.40;102207.00;;;;5044946;28;20076;-73
2022/01/30 08:50:53;;;;;;;13.20;3.28;;;15.30;47.30;14.40;102202.00;;;;5059157;28;21408;-73
2022/01/30 08:53:39;;;;;;;14.65;2.95;;;15.20;47.20;14.30;102209.00;;;;5046784;28;20053;-73
2022/01/30 08:56:25;;;;;;;11.80;2.75;;;15.20;47.20;14.30;102214.00;;;;5065008;28;20037;-73
2022/01/30 08:59:12;;;;;;;15.25;3.40;;;15.20;47.00;14.30;102204.00;;;;5053609;28;20044;-77
2022/01/30 09:01:58;;;;;;;14.57;2.70;;;15.20;47.10;14.40;102218.00;;;;5046538;28;20477;-77
2022/01/30 09:04:44;;;;;;;11.98;3.00;;;15.20;47.20;14.40;102210.00;;;;5058942;28;20048;-72
2022/01/30 09:07:30;;;;;;;14.18;3.15;;;15.20;47.10;14.40;102218.00;;;;5051567;28;20516;-72
2022/01/30 09:10:16;;;;;;;13.88;3.38;;;15.30;47.10;14.40;102215.00;;;;5052711;28;20051;-73
2022/01/30 09:13:02;;;;;;;12.13;3.28;;;15.20;47.00;14.40;102216.00;;;;5060080;28;20552;-73
2022/01/30 09:15:48;;;;;;;17.52;4.07;;;15.20;47.00;14.40;102211.00;;;;5061742;28;20045;-73
2022/01/30 09:18:37;;;;;;;11.57;3.28;;;15.20;47.00;14.40;102216.00;;;;5053395;28;20072;-73
2022/01/30 09:21:24;;;;;;;13.93;3.17;;;15.20;47.10;14.40;102224.00;;;;5056809;28;20041;-73
2022/01/30 09:24:10;;;;;;;13.10;2.80;;;15.20;47.10;14.40;102217.00;;;;5038702;28;20037;-72
2022/01/30 09:26:56;;;;;;;14.82;3.35;;;15.30;47.10;14.40;102212.00;;;;5056931;28;20036;-72
2022/01/30 09:29:42;;;;;;;19.50;4.18;;;15.20;47.00;14.40;102221.00;;;;5060793;28;20037;-73
2022/01/30 09:32:28;;;;;;;19.25;3.67;;;15.30;47.10;14.40;102233.00;;;;5049432;28;20489;-73
2022/01/30 09:35:14;;;;;;;15.20;3.42;;;15.20;47.00;14.40;102234.00;;;;5056262;28;20047;-73
2022/01/30 09:38:01;;;;;;;18.98;3.35;;;15.20;47.00;14.30;102237.00;;;;5062409;28;20080;-73
2022/01/30 09:40:47;;;;;;;16.35;4.63;;;15.20;47.00;14.40;102240.00;;;;5054659;28;20037;-73
2022/01/30 09:43:33;;;;;;;17.30;3.90;;;15.20;46.90;14.30;102251.00;;;;5047678;28;20047;-76
2022/01/30 09:46:19;;;;;;;15.52;4.07;;;15.30;47.00;14.30;102249.00;;;;5044683;28;20044;-72
2022/01/30 09:49:06;;;;;;;16.08;3.63;;;15.20;47.00;14.40;102255.00;;;;5043651;28;20045;-73
2022/01/30 09:51:53;;;;;;;19.75;4.20;;;15.20;46.90;14.40;102261.00;;;;5050644;28;20041;-72
2022/01/30 09:54:39;;;;;;;15.75;4.15;;;15.30;46.80;14.40;102259.00;;;;5060219;28;20084;-74
2022/01/30 09:57:25;;;;;;;15.18;3.25;;;15.20;46.90;14.40;102260.00;;;;5048151;28;20036;-73
2022/01/30 10:00:12;;;;;;;18.45;3.90;;;15.30;47.00;14.40;102255.00;;;;5056061;28;20025;-72
2022/01/30 10:02:58;;;;;;;15.00;3.47;;;15.30;46.90;14.40;102258.00;;;;5063451;28;20527;-72
2022/01/30 10:06:19;;;;;;;12.02;3.33;;;15.30;47.10;14.40;102261.00;;;;5043942;28;20040;-73
2022/01/30 10:09:30;;;;;;;15.18;3.38;;;15.30;47.00;14.40;102270.00;;;;5059186;28;20042;-78
2022/01/30 10:12:20;;;;;;;13.98;3.38;;;15.30;47.00;14.40;102289.00;;;;5056364;28;20047;-73
2022/01/30 10:15:16;;;;;;;16.00;3.72;;;15.30;47.10;14.40;102299.00;;;;5047757;28;20271;-73
2022/01/30 10:18:04;;;;;;;16.00;3.60;;;15.30;47.00;14.40;102288.00;;;;5055339;28;20033;-73
2022/01/30 10:20:50;;;;;;;13.30;3.00;;;15.30;46.90;14.50;102303.00;;;;5056581;28;20041;-73
2022/01/30 10:23:36;;;;;;;12.13;3.30;;;15.40;46.80;14.50;102309.00;;;;5028601;28;20406;-73
2022/01/30 10:26:32;;;;;;;16.40;4.03;;;15.40;46.70;14.50;102303.00;;;;5044905;28;20076;-73
2022/01/30 10:29:19;;;;;;;15.07;3.15;;;15.40;46.40;14.50;102329.00;;;;5055516;28;20113;-73
2022/01/30 10:32:09;;;;;;;16.73;3.80;;;15.40;46.40;14.50;102331.00;;;;5056207;28;20543;-73
2022/01/30 10:35:01;;;;;;;17.52;3.85;;;15.40;46.10;14.50;102328.00;;;;5047139;28;20060;-73
2022/01/30 10:37:47;;;;;;;14.23;3.70;;;15.50;46.10;14.60;102326.00;;;;5052884;28;20052;-73
2022/01/30 10:40:38;;;;;;;12.48;3.20;;;15.40;46.10;14.60;102324.00;;;;5053780;28;20514;-73
2022/01/30 10:43:59;;;;;;;14.65;3.63;;;15.50;45.90;14.60;102310.00;;;;5064343;28;20040;-73
2022/01/30 10:46:49;;;;;;;14.65;3.97;;;15.50;45.80;14.60;102316.00;;;;5059590;28;20493;-73
2022/01/30 10:49:44;;;;;;;17.27;3.80;;;15.50;45.70;14.60;102310.00;;;;5054113;28;20056;-74
2022/01/30 10:52:31;;;;;;;15.45;3.45;;;15.50;45.30;14.60;102307.00;;;;5044579;28;20033;-73
2022/01/30 10:55:17;;;;;;;18.65;4.35;;;15.50;45.40;14.60;102318.00;;;;5056069;28;20443;-73
2022/01/30 10:58:04;;;;;;;15.38;3.28;;;15.60;45.40;14.60;102320.00;;;;5044286;28;20043;-73
2022/01/30 11:00:59;;;;;;;17.10;3.65;;;15.60;45.20;14.70;102333.00;;;;5062106;28;20095;-73
2022/01/30 11:03:50;;;;;;;18.17;4.03;;;15.60;45.00;14.60;102332.00;;;;5040123;28;20543;-73
2022/01/30 11:06:38;;;;;;;15.07;3.50;;;15.60;45.10;14.60;102326.00;;;;5060723;28;20056;-73
2022/01/30 11:09:29;;;;;;;14.73;3.15;;;15.60;45.10;14.70;102316.00;;;;5051897;28;20060;-73
2022/01/30 11:12:17;;;;;;;16.33;3.83;;;15.60;45.10;14.70;102329.00;;;;5054545;28;20544;-73
2022/01/30 11:15:34;;;;;;;15.75;3.40;;;15.60;44.90;14.70;102317.00;;;;5055049;28;20132;-73
2022/01/30 11:18:20;;;;;;;14.85;3.45;;;15.60;45.70;14.70;102332.00;;;;5053577;28;20252;-73
2022/01/30 11:21:06;;;;;;;14.15;2.90;;;15.60;44.90;14.70;102315.00;;;;5058881;28;20037;-73
2022/01/30 11:23:52;;;;;;;15.60;4.18;;;15.60;44.90;14.70;102307.00;;;;5046218;28;20035;-73
2022/01/30 11:26:39;;;;;;;13.90;3.70;;;15.60;44.70;14.70;102317.00;;;;5031729;28;20509;-73
2022/01/30 11:29:25;;;;;;;13.90;3.92;;;15.60;44.70;14.70;102332.00;;;;5056795;28;20090;-73
2022/01/30 11:32:11;;;;;;;12.88;3.10;;;15.60;44.40;14.70;102329.00;;;;5049049;28;20071;-73
2022/01/30 11:34:57;;;;;;;13.98;3.40;;;15.70;44.50;14.70;102313.00;;;;5047367;28;20040;-73
2022/01/30 11:37:43;;;;;;;14.88;3.92;;;15.60;44.40;14.70;102312.00;;;;5042291;28;20498;-75
2022/01/30 11:40:30;;;;;;;18.70;3.65;;;15.70;44.40;14.70;102315.00;;;;5030612;28;20048;-88
2022/01/30 11:43:21;;;;;;;15.75;3.40;;;15.70;44.50;14.70;102313.00;;;;5046513;28;20037;-73
2022/01/30 11:46:16;;;;;;;19.25;4.28;;;15.70;44.20;14.70;102309.00;;;;5060917;28;20098;-74
2022/01/30 11:49:13;;;;;;;13.52;3.58;;;15.70;43.80;14.70;102317.00;;;;5045901;28;20054;-75
2022/01/30 11:52:00;;;;;;;16.63;3.45;;;15.70;43.70;14.70;102294.00;;;;5049461;28;20092;-73
2022/01/30 11:54:57;;;;;;;13.35;2.90;;;15.70;43.70;14.70;102300.00;;;;5039858;28;20079;-78
2022/01/30 11:57:44;;;;;;;17.25;3.85;;;15.70;43.70;14.70;102293.00;;;;5045988;28;20375;-73
2022/01/30 12:00:38;;;;;;;16.63;3.67;;;15.70;43.70;14.70;102297.00;;;;5046609;28;20040;-73
2022/01/30 12:03:28;;;;;;;14.25;3.25;;;15.70;43.60;14.70;102289.00;;;;5029359;28;20139;-73
2022/01/30 12:06:20;;;;;;;17.23;4.28;;;15.70;43.60;14.70;102290.00;;;;5060153;28;20066;-73
2022/01/30 12:09:16;;;;;;;12.88;3.75;;;15.70;43.40;14.70;102287.00;;;;5056736;28;20036;-73
2022/01/30 12:12:05;;;;;;;16.27;3.42;;;15.70;43.20;14.70;102285.00;;;;5061382;28;20040;-73
2022/01/30 12:14:51;;;;;;;13.70;4.05;;;15.70;43.30;14.70;102282.00;;;;5044064;28;20041;-73
2022/01/30 12:17:44;;;;;;;17.25;4.07;;;15.70;43.50;14.70;102279.00;;;;5052669;28;20099;-73
2022/01/30 12:20:33;;;;;;;14.20;3.42;;;15.70;43.30;14.70;102266.00;;;;5038261;28;20041;-73
2022/01/30 12:23:39;;;;;;;16.08;3.60;;;15.70;43.50;14.70;102275.00;;;;5044812;28;20036;-73
2022/01/30 12:26:25;;;;;;;18.88;4.38;;;15.70;43.30;14.70;102285.00;;;;5061467;28;20063;-70
2022/01/30 12:29:11;;;;;;;13.40;2.95;;;15.70;43.30;14.70;102277.00;;;;5057942;28;20045;-70
2022/01/30 12:31:57;;;;;;;18.48;4.07;;;15.70;43.30;14.70;102286.00;;;;5065378;28;20028;-70
2022/01/30 12:34:43;;;;;;;11.43;2.85;;;15.70;43.20;14.70;102284.00;;;;5033216;28;20049;-70
2022/01/30 12:37:31;;;;;;;14.00;3.03;;;15.70;43.20;14.70;102270.00;;;;5039527;28;20041;-70
2022/01/30 12:40:18;;;;;;;14.05;3.63;;;15.70;43.30;14.70;102262.00;;;;5050469;28;20041;-70
2022/01/30 12:43:04;;;;;;;16.50;3.92;;;15.70;43.30;14.70;102279.00;;;;5045270;28;20508;-70
2022/01/30 12:46:02;;;;;;;14.38;3.45;;;15.70;43.30;14.80;102271.00;;;;5061985;28;20078;-70
2022/01/30 12:49:08;;;;;;;16.10;3.50;;;15.70;43.30;14.70;102269.00;;;;5027974;28;20087;-70
2022/01/30 12:51:57;;;;;;;16.40;3.67;;;15.70;43.10;14.70;102274.00;;;;5068730;28;20087;-70
2022/01/30 12:54:43;;;;;;;14.00;3.63;;;15.80;43.20;14.80;102277.00;;;;5063763;28;20044;-70
2022/01/30 12:57:30;;;;;;;15.10;3.78;;;15.80;43.30;14.80;102268.00;;;;5052022;28;20103;-70